Terminal Aerodrome Forecast
Issued by NWS

Current Version | Previous Version | Text Only | Print | Product List | Glossary On
Versions: 1 2 3 4 5 6 7 8 9 10 11 12 13
919
FTAK31 PAJN 140520
TAFAWG
TAF
PAWG 140520Z 1406/1506 10006KT P6SM -SHRA BKN040 OVC060
     FM150000 VRB05KT 6SM -SHRA BR SCT015 OVC025
      AMD LTD TO CLD VIS AND WIND 1406/1415=

USA.gov is the U.S. government's official web portal to all federal, state and local government web resources and services.